sensor_id;sensor_type;location;lat;lon;timestamp;P1;durP1;ratioP1;P2;durP2;ratioP2
76685;SDS011;67489;44.536;0.146;2023-02-18T00:09:09;41.63;;;20.87;;
76685;SDS011;67489;44.536;0.146;2023-02-18T00:22:58;35.43;;;15.63;;
76685;SDS011;67489;44.536;0.146;2023-02-18T00:36:48;39.33;;;18.50;;
76685;SDS011;67489;44.536;0.146;2023-02-18T00:50:38;33.80;;;14.27;;
76685;SDS011;67489;44.536;0.146;2023-02-18T01:04:28;33.30;;;17.07;;
76685;SDS011;67489;44.536;0.146;2023-02-18T01:18:19;36.90;;;16.57;;
76685;SDS011;67489;44.536;0.146;2023-02-18T01:32:07;35.93;;;18.57;;
76685;SDS011;67489;44.536;0.146;2023-02-18T01:45:58;36.80;;;18.67;;
76685;SDS011;67489;44.536;0.146;2023-02-18T01:59:49;41.23;;;20.83;;
76685;SDS011;67489;44.536;0.146;2023-02-18T02:13:43;40.57;;;18.30;;
76685;SDS011;67489;44.536;0.146;2023-02-18T02:27:34;37.23;;;19.00;;
76685;SDS011;67489;44.536;0.146;2023-02-18T02:41:20;48.27;;;18.17;;
76685;SDS011;67489;44.536;0.146;2023-02-18T02:55:13;44.13;;;22.90;;
76685;SDS011;67489;44.536;0.146;2023-02-18T03:08:58;45.67;;;22.77;;
76685;SDS011;67489;44.536;0.146;2023-02-18T03:22:46;44.17;;;20.43;;
76685;SDS011;67489;44.536;0.146;2023-02-18T03:36:35;38.97;;;18.30;;
76685;SDS011;67489;44.536;0.146;2023-02-18T03:50:24;35.27;;;18.03;;
76685;SDS011;67489;44.536;0.146;2023-02-18T04:04:14;40.43;;;17.47;;
76685;SDS011;67489;44.536;0.146;2023-02-18T04:18:06;35.40;;;17.40;;
76685;SDS011;67489;44.536;0.146;2023-02-18T04:31:56;35.07;;;15.63;;
76685;SDS011;67489;44.536;0.146;2023-02-18T04:45:45;40.63;;;17.37;;
76685;SDS011;67489;44.536;0.146;2023-02-18T04:59:35;43.33;;;18.77;;
76685;SDS011;67489;44.536;0.146;2023-02-18T05:13:24;41.50;;;18.70;;
76685;SDS011;67489;44.536;0.146;2023-02-18T05:27:13;34.10;;;16.07;;
76685;SDS011;67489;44.536;0.146;2023-02-18T05:41:03;39.70;;;17.37;;
76685;SDS011;67489;44.536;0.146;2023-02-18T05:54:55;35.43;;;18.53;;
76685;SDS011;67489;44.536;0.146;2023-02-18T06:08:45;41.57;;;18.43;;
76685;SDS011;67489;44.536;0.146;2023-02-18T06:22:39;43.87;;;19.10;;
76685;SDS011;67489;44.536;0.146;2023-02-18T06:36:32;40.97;;;17.83;;
76685;SDS011;67489;44.536;0.146;2023-02-18T06:50:16;34.63;;;16.03;;
76685;SDS011;67489;44.536;0.146;2023-02-18T07:04:04;42.77;;;18.03;;
76685;SDS011;67489;44.536;0.146;2023-02-18T07:17:53;36.70;;;17.83;;
76685;SDS011;67489;44.536;0.146;2023-02-18T07:31:43;36.40;;;17.30;;
76685;SDS011;67489;44.536;0.146;2023-02-18T07:45:36;37.43;;;17.20;;
76685;SDS011;67489;44.536;0.146;2023-02-18T07:59:27;40.03;;;18.90;;
76685;SDS011;67489;44.536;0.146;2023-02-18T08:13:18;25.93;;;14.47;;
76685;SDS011;67489;44.536;0.146;2023-02-18T08:27:09;27.63;;;14.93;;
76685;SDS011;67489;44.536;0.146;2023-02-18T08:41:00;24.43;;;14.77;;
76685;SDS011;67489;44.536;0.146;2023-02-18T08:54:50;25.63;;;14.80;;
76685;SDS011;67489;44.536;0.146;2023-02-18T09:08:42;27.53;;;15.13;;
76685;SDS011;67489;44.536;0.146;2023-02-18T09:22:30;33.83;;;15.70;;
76685;SDS011;67489;44.536;0.146;2023-02-18T09:36:21;31.73;;;14.13;;
76685;SDS011;67489;44.536;0.146;2023-02-18T09:50:12;24.00;;;13.47;;
76685;SDS011;67489;44.536;0.146;2023-02-18T10:04:02;25.10;;;13.23;;
76685;SDS011;67489;44.536;0.146;2023-02-18T10:17:52;30.70;;;13.77;;
76685;SDS011;67489;44.536;0.146;2023-02-18T10:31:43;25.63;;;12.20;;
76685;SDS011;67489;44.536;0.146;2023-02-18T10:45:37;22.03;;;11.83;;
76685;SDS011;67489;44.536;0.146;2023-02-18T10:59:25;19.37;;;11.47;;
76685;SDS011;67489;44.536;0.146;2023-02-18T11:13:16;19.83;;;11.97;;
76685;SDS011;67489;44.536;0.146;2023-02-18T11:27:07;15.13;;;7.50;;
76685;SDS011;67489;44.536;0.146;2023-02-18T11:41:05;10.77;;;6.73;;
76685;SDS011;67489;44.536;0.146;2023-02-18T12:08:37;8.73;;;4.50;;
76685;SDS011;67489;44.536;0.146;2023-02-18T12:22:33;8.00;;;4.13;;
76685;SDS011;67489;44.536;0.146;2023-02-18T12:36:21;7.90;;;2.70;;
76685;SDS011;67489;44.536;0.146;2023-02-18T12:50:19;6.63;;;3.03;;
76685;SDS011;67489;44.536;0.146;2023-02-18T13:04:09;4.63;;;2.63;;
76685;SDS011;67489;44.536;0.146;2023-02-18T13:17:52;3.40;;;2.50;;
76685;SDS011;67489;44.536;0.146;2023-02-18T13:31:49;3.17;;;2.10;;
76685;SDS011;67489;44.536;0.146;2023-02-18T13:45:33;7.63;;;4.37;;
76685;SDS011;67489;44.536;0.146;2023-02-18T13:59:27;3.47;;;2.70;;
76685;SDS011;67489;44.536;0.146;2023-02-18T14:13:23;5.20;;;2.90;;
76685;SDS011;67489;44.536;0.146;2023-02-18T14:27:08;6.17;;;3.07;;
76685;SDS011;67489;44.536;0.146;2023-02-18T14:54:48;7.40;;;2.77;;
76685;SDS011;67489;44.536;0.146;2023-02-18T15:08:36;12.17;;;2.40;;
76685;SDS011;67489;44.536;0.146;2023-02-18T15:22:29;3.83;;;2.53;;
76685;SDS011;67489;44.536;0.146;2023-02-18T15:36:16;3.03;;;1.87;;
76685;SDS011;67489;44.536;0.146;2023-02-18T15:50:14;4.13;;;1.77;;
76685;SDS011;67489;44.536;0.146;2023-02-18T16:03:55;-1.00;;;-1.00;;
76685;SDS011;67489;44.536;0.146;2023-02-18T16:17:45;4.93;;;2.40;;
76685;SDS011;67489;44.536;0.146;2023-02-18T16:31:32;2.50;;;2.00;;
76685;SDS011;67489;44.536;0.146;2023-02-18T16:45:23;5.17;;;2.63;;
76685;SDS011;67489;44.536;0.146;2023-02-18T16:59:11;4.23;;;2.00;;
76685;SDS011;67489;44.536;0.146;2023-02-18T17:13:02;4.37;;;2.90;;
76685;SDS011;67489;44.536;0.146;2023-02-18T17:26:50;3.57;;;2.87;;
76685;SDS011;67489;44.536;0.146;2023-02-18T17:40:38;5.90;;;3.03;;
76685;SDS011;67489;44.536;0.146;2023-02-18T17:54:27;4.93;;;2.90;;
76685;SDS011;67489;44.536;0.146;2023-02-18T18:08:16;7.67;;;3.27;;
76685;SDS011;67489;44.536;0.146;2023-02-18T18:22:05;13.97;;;4.37;;
76685;SDS011;67489;44.536;0.146;2023-02-18T18:35:56;8.53;;;3.93;;
76685;SDS011;67489;44.536;0.146;2023-02-18T18:49:49;9.57;;;4.10;;
76685;SDS011;67489;44.536;0.146;2023-02-18T19:03:35;7.93;;;4.23;;
76685;SDS011;67489;44.536;0.146;2023-02-18T19:17:24;7.67;;;4.00;;
76685;SDS011;67489;44.536;0.146;2023-02-18T19:31:14;11.50;;;5.27;;
76685;SDS011;67489;44.536;0.146;2023-02-18T19:45:04;11.40;;;5.30;;
76685;SDS011;67489;44.536;0.146;2023-02-18T19:58:54;17.10;;;10.30;;
76685;SDS011;67489;44.536;0.146;2023-02-18T20:12:42;14.77;;;8.63;;
76685;SDS011;67489;44.536;0.146;2023-02-18T20:26:31;27.73;;;14.37;;
76685;SDS011;67489;44.536;0.146;2023-02-18T20:40:20;13.60;;;7.90;;
76685;SDS011;67489;44.536;0.146;2023-02-18T20:54:11;11.20;;;6.67;;
76685;SDS011;67489;44.536;0.146;2023-02-18T21:07:59;25.50;;;6.10;;
76685;SDS011;67489;44.536;0.146;2023-02-18T21:21:49;13.20;;;6.13;;
76685;SDS011;67489;44.536;0.146;2023-02-18T21:35:40;20.77;;;5.87;;
76685;SDS011;67489;44.536;0.146;2023-02-18T21:49:29;11.83;;;5.33;;
76685;SDS011;67489;44.536;0.146;2023-02-18T22:03:20;12.57;;;6.27;;
76685;SDS011;67489;44.536;0.146;2023-02-18T22:17:11;8.57;;;5.57;;
76685;SDS011;67489;44.536;0.146;2023-02-18T22:31:04;7.37;;;5.03;;
76685;SDS011;67489;44.536;0.146;2023-02-18T22:44:49;9.50;;;5.07;;
76685;SDS011;67489;44.536;0.146;2023-02-18T22:58:40;9.00;;;5.13;;
76685;SDS011;67489;44.536;0.146;2023-02-18T23:12:30;12.50;;;5.33;;
76685;SDS011;67489;44.536;0.146;2023-02-18T23:26:22;11.33;;;4.93;;
76685;SDS011;67489;44.536;0.146;2023-02-18T23:40:11;15.13;;;6.43;;
76685;SDS011;67489;44.536;0.146;2023-02-18T23:54:01;10.73;;;5.57;;
